No particular awareness of the weather is required.    There are no Weather-warnings


Meteo18 Weather Cam more information Meteo18 Weather Cam


Thunder radar more information blitzortung!


Rain radar more information rain snow radar


Visit our other weather sites:

Template documentation
and downloads

And another site



Weather Underground History page Text

Daily Summary for December 17, 2017 Units:  English    Metric   Both
« Previous Day
Next Day »
Daily Weekly Monthly Yearly Custom
  High: Low: Average:
Temperature: TemperatureC °F 0.4 °F 2.5 °F
Dew Point: DewpointC °F -0.5 °F 1.4 °F
Humidity: Humidity % 76 % 93 %
Wind Speed: WindSpeedKMH mph 0.0 mph 2.5 mph
Wind Gust: WindSpeedGustKMH mph - -
Wind:- - WSW
Pressure: PressurehPa in 1024.3 in -
Precipitation: 1.5 in    
Historical Graphs
 
 
Tabular Data for December 17, 2017
Time Temperature Dew Point Pressure Wind Wind Speed Wind Gust Humidity Rainfall Rate (Hourly)
TemperatureC °F DewpointC °F PressurehPa in Calm     Humidity % HourlyPrecipMM in
00:02 1.5 °F 0.0 °F 1024.6 in Calm   8.0 mph 90 % 0.0 in
00:07 1.3 °F -0.2 °F 1024.6 in SE 3.2 mph 4.8 mph 90 % 0.0 in
00:12 1.1 °F -0.4 °F 1024.9 in SSE 1.6 mph 3.2 mph 90 % 0.0 in
00:17 0.9 °F -0.4 °F 1024.9 in South 1.6 mph 3.2 mph 91 % 0.0 in
00:22 0.9 °F -0.4 °F 1024.9 in SSE 3.2 mph 3.2 mph 91 % 0.0 in
00:27 0.9 °F -0.3 °F 1024.9 in SE 1.6 mph 3.2 mph 92 % 0.0 in
00:32 0.9 °F -0.3 °F 1024.9 in Calm   3.2 mph 92 % 0.0 in
00:42 0.8 °F -0.4 °F 1024.6 in SSW 1.6 mph 4.8 mph 92 % 0.0 in
00:52 0.7 °F -0.5 °F 1024.6 in Calm   4.8 mph 92 % 0.0 in
00:57 0.7 °F -0.3 °F 1024.6 in Calm   4.8 mph 93 % 0.0 in
01:02 0.6 °F -0.4 °F 1024.9 in SSE 1.6 mph 3.2 mph 93 % 0.0 in
01:07 0.6 °F -0.4 °F 1024.6 in Calm   3.2 mph 93 % 0.0 in
01:12 0.6 °F -0.4 °F 1024.6 in South 1.6 mph 1.6 mph 93 % 0.0 in
01:17 0.5 °F -0.5 °F 1024.6 in Calm   6.4 mph 93 % 0.0 in
01:22 0.5 °F -0.4 °F 1024.6 in Calm   6.4 mph 94 % 0.0 in
01:27 0.4 °F -0.5 °F 1024.6 in SE 1.6 mph 6.4 mph 94 % 0.0 in
01:37 0.4 °F -0.5 °F 1024.6 in SE 1.6 mph 3.2 mph 94 % 0.0 in
01:42 0.4 °F -0.5 °F 1024.6 in SE 1.6 mph 3.2 mph 94 % 0.0 in
01:47 0.4 °F -0.5 °F 1024.3 in SSE 1.6 mph 3.2 mph 94 % 0.0 in
01:52 0.4 °F -0.5 °F 1024.6 in Calm   3.2 mph 94 % 0.0 in
01:57 0.4 °F -0.5 °F 1024.6 in Calm   3.2 mph 94 % 0.0 in
02:02 0.4 °F -0.3 °F 1024.6 in Calm   3.2 mph 95 % 0.0 in
02:12 0.4 °F -0.3 °F 1024.6 in Calm   4.8 mph 95 % 0.0 in
02:17 0.4 °F -0.3 °F 1024.9 in SSE 1.6 mph 4.8 mph 95 % 0.0 in
02:22 0.4 °F -0.3 °F 1024.9 in Calm   4.8 mph 95 % 0.3 in
02:32 0.4 °F -0.3 °F 1024.9 in SSE 1.6 mph 3.2 mph 95 % 0.3 in
02:42 0.6 °F -0.1 °F 1024.9 in WSW 1.6 mph 4.8 mph 95 % 0.3 in
02:47 0.9 °F 0.3 °F 1024.6 in Calm   4.8 mph 96 % 0.3 in
02:52 0.9 °F 0.2 °F 1024.9 in WSW 3.2 mph 3.2 mph 95 % 0.5 in
02:57 1.1 °F 0.5 °F 1024.9 in Calm   4.8 mph 96 % 0.5 in
03:07 1.3 °F 0.7 °F 1024.9 in Calm   6.4 mph 96 % 0.5 in
03:12 1.3 °F 0.6 °F 1024.9 in West 1.6 mph 6.4 mph 95 % 0.5 in
03:17 1.3 °F 0.6 °F 1024.6 in WNW 1.6 mph 6.4 mph 95 % 0.5 in
03:22 1.3 °F 0.4 °F 1024.6 in West 4.8 mph 8.0 mph 94 % 0.5 in
03:27 1.2 °F 0.3 °F 1024.6 in Calm   8.0 mph 94 % 1.0 in
03:32 1.1 °F 0.2 °F 1024.6 in WSW 3.2 mph 8.0 mph 94 % 1.0 in
03:37 1.1 °F 0.4 °F 1024.6 in West 3.2 mph 6.4 mph 95 % 1.3 in
03:42 1.0 °F 0.3 °F 1024.6 in Calm   4.8 mph 95 % 1.3 in
03:47 1.0 °F 0.3 °F 1024.6 in Calm   4.8 mph 95 % 1.3 in
03:52 0.9 °F 0.2 °F 1024.6 in Calm   4.8 mph 95 % 1.0 in
03:57 0.9 °F 0.2 °F 1024.6 in Calm   4.8 mph 95 % 1.0 in
04:02 0.8 °F -0.1 °F 1024.6 in SSW 1.6 mph 4.8 mph 94 % 1.0 in
04:12 0.6 °F -0.1 °F 1024.6 in Calm   4.8 mph 95 % 1.0 in
04:17 0.5 °F -0.2 °F 1024.6 in SE 1.6 mph 4.8 mph 95 % 0.8 in
04:22 0.4 °F -0.3 °F 1024.9 in ESE 1.6 mph 4.8 mph 95 % 0.5 in
04:32 0.4 °F -0.3 °F 1024.6 in Calm   4.8 mph 95 % 0.5 in
04:37 0.4 °F -0.3 °F 1024.6 in Calm   4.8 mph 95 % 0.3 in
04:42 0.5 °F -0.1 °F 1024.6 in SSW 3.2 mph 4.8 mph 96 % 0.3 in
04:47 0.5 °F -0.1 °F 1024.6 in South 3.2 mph 4.8 mph 96 % 0.3 in
04:52 0.6 °F 0.0 °F 1024.6 in Calm   4.8 mph 96 % 0.3 in
04:57 0.6 °F 0.0 °F 1024.6 in SE 1.6 mph 4.8 mph 96 % 0.3 in
05:02 0.6 °F 0.0 °F 1024.6 in Calm   4.8 mph 96 % 0.3 in
05:07 0.6 °F 0.0 °F 1024.6 in Calm   3.2 mph 96 % 0.0 in
05:17 0.7 °F 0.1 °F 1024.6 in Calm   3.2 mph 96 % 0.0 in
05:22 0.7 °F 0.1 °F 1024.6 in Calm   3.2 mph 96 % 0.0 in
05:32 0.7 °F 0.1 °F 1024.6 in South 1.6 mph 3.2 mph 96 % 0.0 in
05:37 0.6 °F 0.0 °F 1024.6 in South 1.6 mph 4.8 mph 96 % 0.0 in
05:42 0.7 °F 0.1 °F 1024.6 in SSW 3.2 mph 4.8 mph 96 % 0.0 in
05:47 0.7 °F 0.1 °F 1024.6 in Calm   4.8 mph 96 % 0.0 in
05:52 0.7 °F 0.1 °F 1024.6 in SSW 1.6 mph 4.8 mph 96 % 0.0 in
06:02 0.8 °F 0.2 °F 1024.6 in SSW 1.6 mph 3.2 mph 96 % 0.0 in
06:12 1.1 °F 0.7 °F 1024.9 in Calm   4.8 mph 97 % 0.0 in
06:17 1.6 °F 1.2 °F 1024.9 in WNW 3.2 mph 4.8 mph 97 % 0.0 in
06:22 1.9 °F 1.5 °F 1024.9 in Calm   4.8 mph 97 % 0.0 in
06:27 2.1 °F 1.7 °F 1024.9 in Calm   9.7 mph 97 % 0.0 in
06:32 2.1 °F 1.7 °F 1024.9 in WSW 1.6 mph 9.7 mph 97 % 0.0 in
06:37 2.2 °F 1.8 °F 1024.9 in West 3.2 mph 6.4 mph 97 % 0.0 in
06:42 2.2 °F 1.8 °F 1024.9 in Calm   6.4 mph 97 % 0.0 in
06:52 2.3 °F 1.7 °F 1024.9 in NW 1.6 mph 9.7 mph 96 % 0.0 in
06:57 2.3 °F 1.7 °F 1024.9 in Calm   9.7 mph 96 % 0.0 in
07:02 2.3 °F 1.7 °F 1024.9 in WNW 4.8 mph 9.7 mph 96 % 0.0 in
07:12 2.4 °F 1.8 °F 1024.9 in WNW 3.2 mph 9.7 mph 96 % 0.0 in
07:22 2.4 °F 1.8 °F 1024.9 in WNW 4.8 mph 11.3 mph 96 % 0.0 in
07:27 2.4 °F 1.8 °F 1025.3 in Calm   9.7 mph 96 % 0.0 in
07:32 2.4 °F 1.8 °F 1025.3 in NNW 3.2 mph 9.7 mph 96 % 0.0 in
07:42 2.4 °F 1.8 °F 1025.3 in NNW 4.8 mph 6.4 mph 96 % 0.0 in
07:52 2.4 °F 1.8 °F 1025.6 in NNW 1.6 mph 8.0 mph 96 % 0.0 in
07:57 2.5 °F 1.9 °F 1025.6 in NW 3.2 mph 11.3 mph 96 % 0.0 in
08:02 2.5 °F 1.9 °F 1025.6 in WNW 8.0 mph 11.3 mph 96 % 0.0 in
08:07 2.5 °F 1.9 °F 1025.6 in NW 8.0 mph 12.9 mph 96 % 0.0 in
08:22 2.6 °F 2.0 °F 1026.0 in WNW 8.0 mph 12.9 mph 96 % 0.0 in
08:32 2.6 °F 2.0 °F 1026.0 in NW 8.0 mph 16.1 mph 96 % 0.0 in
08:37 2.5 °F 1.9 °F 1026.0 in WNW 1.6 mph 16.1 mph 96 % 0.0 in
08:42 2.5 °F 1.9 °F 1026.3 in WNW 9.7 mph 16.1 mph 96 % 0.0 in
08:52 2.6 °F 2.0 °F 1026.3 in WNW 4.8 mph 12.9 mph 96 % 0.0 in
09:02 2.6 °F 2.0 °F 1026.6 in West 3.2 mph 12.9 mph 96 % 0.0 in
09:12 2.6 °F 1.9 °F 1026.6 in WNW 3.2 mph 12.9 mph 95 % 0.0 in
09:17 2.7 °F 2.0 °F 1026.6 in WNW 3.2 mph 9.7 mph 95 % 0.0 in
09:22 2.7 °F 2.0 °F 1026.6 in WNW 9.7 mph 9.7 mph 95 % 0.0 in
09:32 2.7 °F 2.0 °F 1026.6 in WNW 4.8 mph 9.7 mph 95 % 0.0 in
09:42 2.7 °F 2.0 °F 1027.0 in NNW 3.2 mph 9.7 mph 95 % 0.0 in
09:47 2.8 °F 2.1 °F 1027.0 in WNW 1.6 mph 8.0 mph 95 % 0.0 in
09:52 2.8 °F 2.1 °F 1027.0 in Calm   8.0 mph 95 % 0.0 in
10:02 2.9 °F 2.3 °F 1027.3 in WNW 3.2 mph 9.7 mph 96 % 0.0 in
10:07 2.9 °F 2.3 °F 1027.7 in WNW 3.2 mph 8.0 mph 96 % 0.0 in
10:12 3.0 °F 2.4 °F 1027.7 in Calm   8.0 mph 96 % 0.0 in
10:17 3.0 °F 2.3 °F 1027.7 in WNW 9.7 mph 9.7 mph 95 % 0.0 in
10:22 3.0 °F 2.4 °F 1027.7 in WNW 3.2 mph 8.0 mph 96 % 0.0 in
10:27 2.9 °F 2.2 °F 1027.7 in WNW 6.4 mph 14.5 mph 95 % 0.0 in
10:32 2.9 °F 2.2 °F 1027.7 in WNW 11.3 mph 14.5 mph 95 % 0.0 in
10:37 2.9 °F 2.2 °F 1028.0 in WNW 3.2 mph 14.5 mph 95 % 0.0 in
10:42 2.9 °F 2.2 °F 1028.0 in WNW 8.0 mph 14.5 mph 95 % 0.0 in
10:52 3.0 °F 2.4 °F 1028.0 in NW 3.2 mph 14.5 mph 96 % 0.0 in
10:57 3.1 °F 2.5 °F 1028.0 in North 4.8 mph 14.5 mph 96 % 0.0 in
11:02 3.1 °F 2.5 °F 1028.3 in NNW 1.6 mph 14.5 mph 96 % 0.0 in
11:12 3.1 °F 2.4 °F 1028.3 in NNW 1.6 mph 12.9 mph 95 % 0.0 in
11:17 3.1 °F 2.5 °F 1028.3 in NW 6.4 mph 12.9 mph 96 % 0.0 in
11:22 3.1 °F 2.5 °F 1028.3 in NW 3.2 mph 12.9 mph 96 % 0.0 in
11:27 3.1 °F 2.5 °F 1028.3 in NNW 1.6 mph 12.9 mph 96 % 0.0 in
11:37 3.2 °F 2.6 °F 1028.3 in NNW 4.8 mph 9.7 mph 96 % 0.0 in
11:47 3.3 °F 2.7 °F 1028.0 in NW 1.6 mph 9.7 mph 96 % 0.0 in
11:52 3.4 °F 2.8 °F 1028.3 in WNW 1.6 mph 9.7 mph 96 % 0.0 in
11:57 3.4 °F 2.8 °F 1028.0 in West 1.6 mph 9.7 mph 96 % 0.0 in
12:07 3.4 °F 2.8 °F 1028.0 in NNW 6.4 mph 8.0 mph 96 % 0.0 in
12:12 3.5 °F 2.9 °F 1028.0 in NW 1.6 mph 8.0 mph 96 % 0.0 in
12:17 3.5 °F 2.8 °F 1028.0 in NW 1.6 mph 9.7 mph 95 % 0.0 in
12:22 3.6 °F 2.9 °F 1028.0 in Calm   9.7 mph 95 % 0.0 in
12:27 3.6 °F 2.9 °F 1027.7 in NNE 1.6 mph 6.4 mph 95 % 0.0 in
12:32 3.5 °F 2.6 °F 1028.0 in Calm   6.4 mph 94 % 0.0 in
12:37 3.5 °F 2.6 °F 1028.0 in Calm   4.8 mph 94 % 0.0 in
12:47 3.7 °F 2.8 °F 1028.0 in Calm   1.6 mph 94 % 0.0 in
12:57 3.8 °F 2.9 °F 1027.7 in NE 3.2 mph 4.8 mph 94 % 0.0 in
13:02 3.8 °F 2.8 °F 1027.7 in NE 1.6 mph 4.8 mph 93 % 0.0 in
13:12 3.8 °F 2.8 °F 1027.7 in Calm   4.8 mph 93 % 0.0 in
13:17 3.8 °F 2.6 °F 1027.7 in NW 3.2 mph 4.8 mph 92 % 0.0 in
13:22 3.8 °F 2.5 °F 1027.7 in WNW 1.6 mph 4.8 mph 91 % 0.0 in
13:32 4.0 °F 2.4 °F 1027.7 in Calm   6.4 mph 89 % 0.0 in
13:42 4.3 °F 2.3 °F 1027.7 in NW 4.8 mph 9.7 mph 87 % 0.0 in
13:52 4.6 °F 2.5 °F 1027.7 in Calm   9.7 mph 86 % 0.0 in
13:57 4.6 °F 2.6 °F 1027.7 in WNW 4.8 mph 6.4 mph 87 % 0.0 in
14:02 4.7 °F 2.4 °F 1027.7 in WNW 1.6 mph 6.4 mph 85 % 0.0 in
14:12 4.6 °F 2.1 °F 1027.7 in West 3.2 mph 8.0 mph 84 % 0.0 in
14:17 4.4 °F 1.9 °F 1027.7 in NW 4.8 mph 9.7 mph 84 % 0.0 in
14:22 4.4 °F 1.9 °F 1027.7 in WNW 1.6 mph 9.7 mph 84 % 0.0 in
14:32 4.6 °F 2.1 °F 1027.7 in ENE 1.6 mph 9.7 mph 84 % 0.0 in
14:42 4.9 °F 2.3 °F 1027.7 in NNW 8.0 mph 8.0 mph 83 % 0.0 in
14:47 5.2 °F 2.2 °F 1027.7 in West 1.6 mph 9.7 mph 81 % 0.0 in
14:52 5.4 °F 2.2 °F 1027.7 in WNW 4.8 mph 11.3 mph 80 % 0.0 in
14:57 5.4 °F 1.5 °F 1027.7 in NW 9.7 mph 11.3 mph 76 % 0.0 in
15:02 5.1 °F 1.4 °F 1027.7 in WNW 9.7 mph 11.3 mph 77 % 0.0 in
15:07 4.9 °F 1.6 °F 1027.7 in NW 6.4 mph 16.1 mph 79 % 0.0 in
15:22 4.8 °F 1.6 °F 1028.0 in WNW 8.0 mph 9.7 mph 80 % 0.0 in
15:32 4.8 °F 1.6 °F 1028.3 in NW 1.6 mph 9.7 mph 80 % 0.0 in
15:37 4.8 °F 1.6 °F 1028.3 in West 3.2 mph 9.7 mph 80 % 0.0 in
15:42 4.8 °F 2.0 °F 1028.3 in West 6.4 mph 12.9 mph 82 % 0.0 in
15:47 4.7 °F 2.1 °F 1028.7 in WNW 4.8 mph 12.9 mph 83 % 0.0 in
15:52 4.7 °F 2.1 °F 1028.3 in WNW 6.4 mph 12.9 mph 83 % 0.0 in
16:02 4.6 °F 2.1 °F 1028.3 in WNW 4.8 mph 12.9 mph 84 % 0.0 in
16:08 4.5 °F 2.0 °F 1028.3 in WNW 4.8 mph 9.7 mph 84 % 0.0 in
16:17 4.4 °F 2.1 °F 1028.7 in Calm   6.4 mph 85 % 0.0 in
16:22 4.4 °F 2.1 °F 1028.3 in West 1.6 mph 6.4 mph 85 % 0.0 in
16:27 4.3 °F 2.0 °F 1028.3 in West 3.2 mph 6.4 mph 85 % 0.0 in
16:37 4.2 °F 2.1 °F 1028.7 in WSW 1.6 mph 4.8 mph 86 % 0.0 in
16:42 4.1 °F 2.0 °F 1028.7 in West 1.6 mph 3.2 mph 86 % 0.0 in
16:47 4.1 °F 2.0 °F 1028.7 in West 1.6 mph 3.2 mph 86 % 0.0 in
16:52 3.9 °F 1.9 °F 1028.7 in West 1.6 mph 3.2 mph 87 % 0.0 in
16:57 3.8 °F 1.8 °F 1028.7 in West 1.6 mph 3.2 mph 87 % 0.0 in
17:02 3.7 °F 1.7 °F 1028.7 in Calm   3.2 mph 87 % 0.0 in
17:07 3.7 °F 1.7 °F 1028.7 in Calm   3.2 mph 87 % 0.0 in
17:12 3.6 °F 1.8 °F 1029.0 in Calm   1.6 mph 88 % 0.0 in
17:17 3.5 °F 1.7 °F 1029.0 in West 1.6 mph 1.6 mph 88 % 0.0 in
17:22 3.5 °F 1.7 °F 1029.0 in WNW 3.2 mph 4.8 mph 88 % 0.0 in
17:32 3.3 °F 1.5 °F 1029.0 in Calm   4.8 mph 88 % 0.0 in
17:42 3.1 °F 1.6 °F 1029.0 in Calm   3.2 mph 90 % 0.0 in
17:47 3.0 °F 1.5 °F 1029.3 in West 1.6 mph 3.2 mph 90 % 0.0 in
17:52 3.1 °F 1.6 °F 1029.0 in West 1.6 mph 3.2 mph 90 % 0.0 in
17:57 3.1 °F 1.8 °F 1029.3 in West 1.6 mph 3.2 mph 91 % 0.0 in
18:02 3.2 °F 1.9 °F 1029.3 in Calm   3.2 mph 91 % 0.0 in
18:07 3.1 °F 1.8 °F 1029.3 in Calm   4.8 mph 91 % 0.0 in
18:12 3.0 °F 1.7 °F 1029.3 in Calm   4.8 mph 91 % 0.0 in
18:17 3.0 °F 1.8 °F 1029.3 in WSW 1.6 mph 4.8 mph 92 % 0.0 in
18:27 3.0 °F 1.8 °F 1029.3 in Calm   3.2 mph 92 % 0.0 in
18:37 2.7 °F 1.5 °F 1029.3 in Calm   1.6 mph 92 % 0.0 in
18:42 2.6 °F 1.4 °F 1029.3 in Calm   1.6 mph 92 % 0.0 in
18:47 2.5 °F 1.3 °F 1029.3 in Calm   1.6 mph 92 % 0.0 in
18:52 2.4 °F 1.4 °F 1029.3 in Calm   1.6 mph 93 % 0.0 in
18:57 2.3 °F 1.3 °F 1029.3 in Calm   1.6 mph 93 % 0.0 in
19:02 2.3 °F 1.3 °F 1029.3 in Calm   1.6 mph 93 % 0.0 in
19:12 2.2 °F 1.3 °F 1029.3 in Calm   1.6 mph 94 % 0.0 in
19:22 2.2 °F 1.5 °F 1029.3 in Calm   1.6 mph 95 % 0.0 in
19:27 2.2 °F 1.3 °F 1029.3 in Calm   1.6 mph 94 % 0.0 in
19:32 2.0 °F 1.1 °F 1029.3 in Calm   1.6 mph 94 % 0.0 in
19:37 1.9 °F 1.0 °F 1029.3 in Calm   1.6 mph 94 % 0.0 in
19:42 1.8 °F 0.9 °F 1029.3 in Calm   1.6 mph 94 % 0.0 in
19:47 1.7 °F 0.8 °F 1029.7 in Calm   1.6 mph 94 % 0.0 in
19:52 1.8 °F 1.1 °F 1029.7 in West 3.2 mph 3.2 mph 95 % 0.0 in
19:57 2.1 °F 1.5 °F 1029.7 in West 1.6 mph 4.8 mph 96 % 0.0 in
20:02 2.2 °F 1.6 °F 1029.7 in West 3.2 mph 4.8 mph 96 % 0.0 in
20:12 2.4 °F 1.7 °F 1029.7 in SW 4.8 mph 4.8 mph 95 % 0.0 in
20:22 2.7 °F 2.0 °F 1029.7 in SW 4.8 mph 9.7 mph 95 % 0.0 in
20:32 2.7 °F 2.0 °F 1029.7 in WSW 3.2 mph 9.7 mph 95 % 0.0 in
20:37 2.8 °F 2.1 °F 1029.7 in WSW 9.7 mph 11.3 mph 95 % 0.0 in
20:42 2.8 °F 2.1 °F 1029.7 in West 3.2 mph 11.3 mph 95 % 0.0 in
20:47 2.8 °F 2.1 °F 1029.7 in West 3.2 mph 11.3 mph 95 % 0.0 in
20:57 2.9 °F 2.2 °F 1029.3 in SW 4.8 mph 11.3 mph 95 % 0.0 in
21:02 2.9 °F 2.2 °F 1029.3 in WSW 6.4 mph 11.3 mph 95 % 0.0 in
21:07 2.8 °F 2.1 °F 1029.3 in WSW 3.2 mph 11.3 mph 95 % 0.0 in
21:12 2.8 °F 2.1 °F 1029.3 in WSW 4.8 mph 11.3 mph 95 % 0.0 in
21:17 2.8 °F 2.1 °F 1029.3 in WSW 4.8 mph 11.3 mph 95 % 0.0 in
21:22 2.8 °F 2.1 °F 1029.3 in WSW 6.4 mph 11.3 mph 95 % 0.0 in
21:27 2.9 °F 2.2 °F 1029.3 in WSW 6.4 mph 11.3 mph 95 % 0.0 in
21:37 2.9 °F 2.2 °F 1029.3 in WSW 9.7 mph 11.3 mph 95 % 0.0 in
21:42 2.9 °F 2.2 °F 1029.7 in SW 4.8 mph 11.3 mph 95 % 0.0 in
21:52 2.9 °F 2.2 °F 1029.3 in SW 3.2 mph 11.3 mph 95 % 0.0 in
21:57 2.9 °F 2.2 °F 1029.3 in SW 4.8 mph 11.3 mph 95 % 0.0 in
22:02 2.9 °F 2.2 °F 1029.3 in SW 3.2 mph 11.3 mph 95 % 0.0 in
22:12 3.1 °F 2.4 °F 1029.3 in SW 4.8 mph 11.3 mph 95 % 0.0 in
22:22 3.1 °F 2.4 °F 1029.0 in West 6.4 mph 11.3 mph 95 % 0.0 in
22:32 3.1 °F 2.4 °F 1029.3 in SW 3.2 mph 11.3 mph 95 % 0.0 in
22:37 3.1 °F 2.4 °F 1029.0 in SW 3.2 mph 11.3 mph 95 % 0.0 in
22:42 3.1 °F 2.4 °F 1029.0 in SW 4.8 mph 11.3 mph 95 % 0.0 in
22:47 3.1 °F 2.4 °F 1029.0 in SSW 4.8 mph 11.3 mph 95 % 0.0 in
22:57 3.1 °F 2.4 °F 1029.0 in SSW 4.8 mph 9.7 mph 95 % 0.0 in
23:02 3.1 °F 2.4 °F 1028.7 in SW 3.2 mph 9.7 mph 95 % 0.0 in
23:07 3.0 °F 2.3 °F 1028.7 in South 3.2 mph 11.3 mph 95 % 0.0 in
23:12 3.0 °F 2.3 °F 1028.7 in SSW 3.2 mph 11.3 mph 95 % 0.0 in
23:17 3.0 °F 2.3 °F 1028.7 in SSW 1.6 mph 9.7 mph 95 % 0.0 in
23:27 3.0 °F 2.3 °F 1028.7 in SSW 4.8 mph 6.4 mph 95 % 0.0 in
23:32 3.0 °F 2.4 °F 1028.7 in SW 1.6 mph 6.4 mph 96 % 0.0 in
23:42 3.1 °F 2.5 °F 1028.7 in South 1.6 mph 9.7 mph 96 % 0.0 in
23:52 3.1 °F 2.5 °F 1028.3 in SSW 1.6 mph 9.7 mph 96 % 0.0 in
Meteo18
Compliments of Weather Underground - 4 mb

Script developed by  Jim McMurry - jmcmurry@mwt.net Adapted for the template by  Wim van der Kuil - Leuven-Template.eu

You find our weather info also at:

European Weather Network

Weather Underground

Equipment we use:

Weather-station
Davis Vue

Weather-program
Meteobridge

Weather-server
Raspberry PI 2 B+

Provider
1 and 1

Davis Vue

Meteobridge

Raspberry PI 2 B+

1 and 1